Time;durP1;ratioP1;P1;durP2;ratioP2;P2;SDS_P1;SDS_P2;PMS_P1;PMS_P2;Temp;Humidity;BMP_temperature;BMP_pressure;BME280_temperature;BME280_humidity;BME280_pressure;Samples;Min_cycle;Max_cycle;Signal;HPM_P1;HPM_P2
2021/07/16 00:00:58;;;;;;;9.75;4.70;;;17.20;99.90;;;;;;5037355;28;20048;-64
2021/07/16 00:03:25;;;;;;;7.55;4.35;;;17.20;99.90;;;;;;5035311;28;20135;-63
2021/07/16 00:05:52;;;;;;;9.90;5.07;;;17.10;99.90;;;;;;5036208;28;20049;-63
2021/07/16 00:08:20;;;;;;;9.35;5.50;;;17.10;99.90;;;;;;5033360;28;20509;-64
2021/07/16 00:10:47;;;;;;;7.53;4.20;;;17.00;99.90;;;;;;5034870;28;20173;-63
2021/07/16 00:13:14;;;;;;;9.48;4.72;;;16.90;99.90;;;;;;5036922;28;20044;-63
2021/07/16 00:15:42;;;;;;;14.45;7.15;;;17.00;99.90;;;;;;5037218;28;20117;-63
2021/07/16 00:18:09;;;;;;;21.25;7.88;;;16.90;99.90;;;;;;5034787;28;20052;-63
2021/07/16 00:20:36;;;;;;;15.68;6.22;;;16.90;99.90;;;;;;5035458;28;20920;-63
2021/07/16 00:23:03;;;;;;;12.43;5.72;;;16.90;99.90;;;;;;5036318;28;20048;-62
2021/07/16 00:25:31;;;;;;;12.82;5.95;;;16.80;99.90;;;;;;5034932;28;20149;-63
2021/07/16 00:27:58;;;;;;;13.18;5.53;;;16.90;99.90;;;;;;5035599;28;20509;-63
2021/07/16 00:30:25;;;;;;;11.73;5.80;;;16.80;99.90;;;;;;5036213;28;20052;-63
2021/07/16 00:32:52;;;;;;;11.77;5.10;;;16.80;99.90;;;;;;5035168;28;20056;-63
2021/07/16 00:35:19;;;;;;;14.38;6.50;;;16.80;99.90;;;;;;5036273;28;20072;-64
2021/07/16 00:37:46;;;;;;;10.50;5.22;;;16.80;99.90;;;;;;5035447;28;20109;-64
2021/07/16 00:40:15;;;;;;;11.93;5.35;;;16.60;99.90;;;;;;5036046;28;21473;-63
2021/07/16 00:42:43;;;;;;;9.35;5.10;;;16.60;99.90;;;;;;5036542;28;20065;-64
2021/07/16 00:45:12;;;;;;;8.23;4.65;;;16.70;99.90;;;;;;5035604;28;21176;-64
2021/07/16 00:47:41;;;;;;;9.00;4.53;;;16.70;99.90;;;;;;5034517;28;20578;-64
2021/07/16 00:50:10;;;;;;;9.05;5.93;;;16.70;99.90;;;;;;5035379;28;20106;-64
2021/07/16 00:52:37;;;;;;;8.43;5.38;;;16.60;99.90;;;;;;5038646;28;20498;-63
2021/07/16 00:55:06;;;;;;;13.35;5.65;;;16.60;99.90;;;;;;5036572;28;20060;-63
2021/07/16 00:57:33;;;;;;;9.30;5.53;;;16.60;99.90;;;;;;5034280;28;20087;-64
2021/07/16 01:00:02;;;;;;;14.45;5.75;;;16.50;99.90;;;;;;5035946;28;20076;-63
2021/07/16 01:02:30;;;;;;;10.60;5.25;;;16.40;99.90;;;;;;5035130;28;20102;-63
2021/07/16 01:04:57;;;;;;;9.05;5.03;;;16.40;99.90;;;;;;5035404;28;20497;-63
2021/07/16 01:07:24;;;;;;;8.93;4.97;;;16.40;99.90;;;;;;5035878;28;20048;-63
2021/07/16 01:09:51;;;;;;;9.32;5.22;;;16.30;99.90;;;;;;5035932;28;20060;-63
2021/07/16 01:12:20;;;;;;;10.52;5.78;;;16.30;99.90;;;;;;5035303;28;20496;-63
2021/07/16 01:14:47;;;;;;;9.63;4.90;;;16.30;99.90;;;;;;5035221;28;20836;-63
2021/07/16 01:17:16;;;;;;;9.35;5.13;;;16.30;99.90;;;;;;5035560;28;20083;-64
2021/07/16 01:19:51;;;;;;;9.50;4.43;;;16.30;99.90;;;;;;5035180;28;20084;-63
2021/07/16 01:22:18;;;;;;;7.63;4.90;;;16.40;99.90;;;;;;5034881;28;20044;-63
2021/07/16 01:24:47;;;;;;;8.70;5.90;;;16.30;99.90;;;;;;5035471;28;20064;-64
2021/07/16 01:27:15;;;;;;;11.20;5.50;;;16.30;99.90;;;;;;5033770;28;20174;-64
2021/07/16 01:29:42;;;;;;;10.35;5.60;;;16.20;99.90;;;;;;5039085;28;20599;-63
2021/07/16 01:32:09;;;;;;;8.48;5.28;;;16.20;99.90;;;;;;5038496;28;20056;-64
2021/07/16 01:34:36;;;;;;;9.50;6.05;;;16.30;99.90;;;;;;5038110;28;20054;-64
2021/07/16 01:37:04;;;;;;;11.05;5.07;;;16.30;99.90;;;;;;5038225;28;20129;-64
2021/07/16 01:39:31;;;;;;;9.88;5.32;;;16.30;99.90;;;;;;5037733;28;20045;-63
2021/07/16 01:42:02;;;;;;;9.90;5.90;;;16.40;99.90;;;;;;5039012;28;20094;-64
2021/07/16 01:44:29;;;;;;;13.50;5.93;;;16.30;99.90;;;;;;5037829;28;21638;-63
2021/07/16 01:46:56;;;;;;;14.52;6.60;;;16.40;99.90;;;;;;5039891;28;20060;-64
2021/07/16 01:49:23;;;;;;;12.15;6.57;;;16.30;99.90;;;;;;5034530;28;20053;-64
2021/07/16 01:51:50;;;;;;;18.77;7.95;;;16.40;99.90;;;;;;5044703;28;20080;-64
2021/07/16 01:54:17;;;;;;;12.27;7.53;;;16.30;99.90;;;;;;5046318;28;20052;-64
2021/07/16 01:56:44;;;;;;;19.65;7.68;;;16.30;99.90;;;;;;5045766;28;20153;-64
2021/07/16 01:59:13;;;;;;;14.63;7.15;;;16.30;99.90;;;;;;5045866;28;20088;-64
2021/07/16 02:01:40;;;;;;;13.20;6.20;;;16.30;99.90;;;;;;5047593;28;20141;-64
2021/07/16 02:04:07;;;;;;;9.90;6.03;;;16.40;99.90;;;;;;5046930;28;20044;-64
2021/07/16 02:06:35;;;;;;;9.38;5.95;;;16.40;99.90;;;;;;5046384;28;20231;-64
2021/07/16 02:09:04;;;;;;;10.95;5.25;;;16.50;99.90;;;;;;5044744;28;20095;-64
2021/07/16 02:11:32;;;;;;;9.77;5.07;;;16.50;99.90;;;;;;5042507;28;20127;-64
2021/07/16 02:13:59;;;;;;;10.05;5.18;;;16.40;99.90;;;;;;5039910;28;20764;-64
2021/07/16 02:16:28;;;;;;;9.45;5.43;;;16.40;99.90;;;;;;5038325;28;20052;-64
2021/07/16 02:18:56;;;;;;;9.60;5.45;;;16.40;99.90;;;;;;5036279;28;20061;-65
2021/07/16 02:21:23;;;;;;;10.32;6.13;;;16.40;99.90;;;;;;5037954;28;20056;-64
2021/07/16 02:23:50;;;;;;;7.88;5.43;;;16.40;99.90;;;;;;5039075;28;20139;-63
2021/07/16 02:26:17;;;;;;;13.68;5.88;;;16.30;99.90;;;;;;5038515;28;20500;-64
2021/07/16 02:28:45;;;;;;;17.67;6.60;;;16.30;99.90;;;;;;5039230;28;20102;-65
2021/07/16 02:31:13;;;;;;;36.15;7.20;;;16.30;99.90;;;;;;5038909;28;20507;-65
2021/07/16 02:33:42;;;;;;;11.13;5.55;;;16.20;99.90;;;;;;5037677;28;20076;-65
2021/07/16 02:36:10;;;;;;;8.57;5.05;;;16.20;99.90;;;;;;5038793;28;20041;-65
2021/07/16 02:38:38;;;;;;;10.52;4.93;;;16.20;99.90;;;;;;5037332;28;20101;-65
2021/07/16 02:41:06;;;;;;;15.75;5.78;;;16.20;99.90;;;;;;5037671;28;20053;-64
2021/07/16 02:43:34;;;;;;;9.13;5.68;;;16.20;99.90;;;;;;5036691;28;20271;-65
2021/07/16 02:46:01;;;;;;;10.05;5.55;;;16.20;99.90;;;;;;5039967;28;20481;-65
2021/07/16 02:48:28;;;;;;;8.90;5.00;;;16.30;99.90;;;;;;5038259;28;20098;-65
2021/07/16 02:50:56;;;;;;;11.23;5.82;;;16.30;99.90;;;;;;5038555;28;20133;-65
2021/07/16 02:53:24;;;;;;;17.00;5.82;;;16.30;99.90;;;;;;5038368;28;20106;-65
2021/07/16 02:55:52;;;;;;;50.00;9.57;;;16.30;99.90;;;;;;5037304;28;20135;-65
2021/07/16 02:58:19;;;;;;;30.33;8.45;;;16.30;99.90;;;;;;5037432;28;20052;-65
2021/07/16 03:00:46;;;;;;;84.95;13.10;;;16.20;99.90;;;;;;5038669;28;20076;-65
2021/07/16 03:03:13;;;;;;;16.83;8.82;;;16.20;99.90;;;;;;5037874;28;20106;-64
2021/07/16 03:05:40;;;;;;;16.83;9.13;;;16.20;99.90;;;;;;5037744;28;20146;-65
2021/07/16 03:08:11;;;;;;;20.65;8.20;;;16.20;99.90;;;;;;5036716;28;20492;-64
2021/07/16 03:10:41;;;;;;;24.92;9.15;;;16.20;99.90;;;;;;5037695;28;20084;-65
2021/07/16 03:13:12;;;;;;;47.05;10.70;;;16.20;99.90;;;;;;5036785;28;20474;-65
2021/07/16 03:15:39;;;;;;;18.65;9.32;;;16.20;99.90;;;;;;5037965;28;20172;-65
2021/07/16 03:18:07;;;;;;;19.00;9.52;;;16.20;99.90;;;;;;5036963;28;20133;-65
2021/07/16 03:20:36;;;;;;;58.22;11.18;;;16.20;99.90;;;;;;5038081;28;20097;-64
2021/07/16 03:23:05;;;;;;;135.63;14.80;;;16.10;99.90;;;;;;5037830;28;20136;-65
2021/07/16 03:25:35;;;;;;;94.85;13.95;;;16.00;99.90;;;;;;5036728;28;20567;-65
2021/07/16 03:28:02;;;;;;;31.65;11.05;;;16.00;99.90;;;;;;5036723;28;20059;-65
2021/07/16 03:30:30;;;;;;;45.92;11.30;;;16.00;99.90;;;;;;5038213;28;20049;-65
2021/07/16 03:32:58;;;;;;;27.80;11.75;;;16.00;99.90;;;;;;5036780;28;20052;-65
2021/07/16 03:35:27;;;;;;;37.83;11.10;;;16.10;99.90;;;;;;5037151;28;20067;-65
2021/07/16 03:37:54;;;;;;;13.82;8.48;;;16.10;99.90;;;;;;5036134;28;20044;-65
2021/07/16 03:40:23;;;;;;;46.97;8.55;;;16.10;99.90;;;;;;5038170;28;20084;-65
2021/07/16 03:42:52;;;;;;;10.70;6.18;;;16.10;99.90;;;;;;5037586;28;20048;-65
2021/07/16 03:45:19;;;;;;;8.07;5.22;;;16.20;99.90;;;;;;5038421;28;20080;-65
2021/07/16 03:47:47;;;;;;;54.17;7.22;;;16.20;99.90;;;;;;5035483;28;20052;-65
2021/07/16 03:50:16;;;;;;;19.83;5.90;;;16.00;99.90;;;;;;5036659;28;20121;-65
2021/07/16 03:52:44;;;;;;;23.80;6.70;;;15.80;99.90;;;;;;5035589;28;20574;-65
2021/07/16 03:55:12;;;;;;;56.50;8.85;;;15.80;99.90;;;;;;5036525;28;20114;-65
2021/07/16 03:57:43;;;;;;;29.17;8.55;;;15.80;99.90;;;;;;5036776;28;20088;-65
2021/07/16 04:00:14;;;;;;;16.42;6.63;;;15.80;99.90;;;;;;5037350;28;20086;-65
2021/07/16 04:02:42;;;;;;;12.77;7.05;;;15.90;99.90;;;;;;5037531;28;20052;-69
2021/07/16 04:05:10;;;;;;;98.82;9.65;;;15.90;99.90;;;;;;5036368;28;20106;-66
2021/07/16 04:07:45;;;;;;;79.72;9.95;;;15.90;99.90;;;;;;5036213;28;20052;-66
2021/07/16 04:10:13;;;;;;;15.18;6.68;;;15.90;99.90;;;;;;5037063;28;20087;-65
2021/07/16 04:12:40;;;;;;;19.17;7.05;;;16.00;99.90;;;;;;5037603;28;20136;-64
2021/07/16 04:15:08;;;;;;;12.77;7.35;;;16.00;99.90;;;;;;5037311;28;20157;-65
2021/07/16 04:17:37;;;;;;;23.50;7.50;;;16.10;99.90;;;;;;5035168;28;20097;-65
2021/07/16 04:20:04;;;;;;;19.10;7.65;;;16.00;99.90;;;;;;5036748;28;20084;-65
2021/07/16 04:22:31;;;;;;;14.70;8.27;;;16.10;99.90;;;;;;5035887;28;20105;-64
2021/07/16 04:24:58;;;;;;;48.38;8.93;;;16.00;99.90;;;;;;5037176;28;20102;-65
2021/07/16 04:27:26;;;;;;;17.38;7.68;;;16.10;99.90;;;;;;5037045;28;20052;-65
2021/07/16 04:29:53;;;;;;;31.20;8.60;;;16.00;99.90;;;;;;5036019;28;20102;-64
2021/07/16 04:32:20;;;;;;;15.70;7.53;;;16.00;99.90;;;;;;5035468;28;20052;-64
2021/07/16 04:34:48;;;;;;;30.30;8.63;;;16.10;99.90;;;;;;5037127;28;20040;-65
2021/07/16 04:37:15;;;;;;;24.08;8.40;;;16.10;99.90;;;;;;5036974;28;20084;-65
2021/07/16 04:39:42;;;;;;;17.42;8.35;;;16.10;99.90;;;;;;5036197;28;20129;-65
2021/07/16 04:42:09;;;;;;;16.17;9.40;;;16.10;99.90;;;;;;5036832;28;20481;-65
2021/07/16 04:44:36;;;;;;;28.27;8.57;;;16.10;99.90;;;;;;5037064;28;20130;-65
2021/07/16 04:47:04;;;;;;;17.50;8.43;;;16.20;99.90;;;;;;5037116;28;20052;-65
2021/07/16 04:49:31;;;;;;;13.35;7.95;;;16.20;99.90;;;;;;5035704;28;20053;-65
2021/07/16 04:52:01;;;;;;;13.23;8.10;;;16.30;99.90;;;;;;5038670;28;20048;-65
2021/07/16 04:54:28;;;;;;;16.60;7.45;;;16.40;99.90;;;;;;5038821;28;20121;-65
2021/07/16 04:56:56;;;;;;;25.60;8.15;;;16.50;99.90;;;;;;5035444;28;20088;-65
2021/07/16 04:59:23;;;;;;;30.23;7.35;;;16.40;99.90;;;;;;5036303;28;20041;-66
2021/07/16 05:01:51;;;;;;;32.88;8.52;;;16.50;99.90;;;;;;5039828;28;20178;-65
2021/07/16 05:04:18;;;;;;;22.38;7.90;;;16.40;99.90;;;;;;5043123;28;20052;-65
2021/07/16 05:06:46;;;;;;;29.10;8.30;;;16.50;99.90;;;;;;5044162;28;20080;-66
2021/07/16 05:09:14;;;;;;;20.15;8.60;;;16.30;99.90;;;;;;5042862;28;20080;-64
2021/07/16 05:11:41;;;;;;;16.50;6.45;;;16.40;99.90;;;;;;5044552;28;20052;-65
2021/07/16 05:14:08;;;;;;;27.90;8.18;;;16.40;99.90;;;;;;5044307;28;20890;-66
2021/07/16 05:16:35;;;;;;;17.83;8.25;;;16.50;99.90;;;;;;5044721;28;20048;-65
2021/07/16 05:19:02;;;;;;;27.38;7.55;;;16.60;99.90;;;;;;5043039;28;20048;-65
2021/07/16 05:21:29;;;;;;;14.43;7.57;;;16.70;99.90;;;;;;5043466;28;20080;-65
2021/07/16 05:23:56;;;;;;;21.38;7.68;;;16.60;99.90;;;;;;5042786;28;20072;-65
2021/07/16 05:26:25;;;;;;;33.42;8.52;;;16.60;99.90;;;;;;5043896;28;20113;-66
2021/07/16 05:28:52;;;;;;;23.17;8.77;;;16.40;99.90;;;;;;5042477;28;20529;-65
2021/07/16 05:31:19;;;;;;;13.60;8.45;;;16.50;99.90;;;;;;5044650;28;20106;-65
2021/07/16 05:33:47;;;;;;;43.45;9.95;;;16.50;99.90;;;;;;5044279;28;20102;-65
2021/07/16 05:36:14;;;;;;;24.10;9.13;;;16.50;99.90;;;;;;5037189;28;20088;-65
2021/07/16 05:38:41;;;;;;;22.38;9.70;;;16.40;99.90;;;;;;5042919;28;20056;-65
2021/07/16 05:41:08;;;;;;;18.88;9.02;;;16.30;99.90;;;;;;5043437;28;20129;-65
2021/07/16 05:43:37;;;;;;;18.73;8.32;;;16.50;99.90;;;;;;5040021;28;20084;-65
2021/07/16 05:46:04;;;;;;;14.02;8.30;;;16.50;99.90;;;;;;5046086;28;20490;-65
2021/07/16 05:48:32;;;;;;;20.17;8.55;;;16.70;99.90;;;;;;5045159;28;20056;-65
2021/07/16 05:51:00;;;;;;;19.10;9.43;;;16.70;99.90;;;;;;5044833;28;20048;-65
2021/07/16 05:53:28;;;;;;;20.38;9.70;;;16.80;99.90;;;;;;5047362;28;20044;-65
2021/07/16 05:55:55;;;;;;;17.33;9.43;;;16.80;99.90;;;;;;5048584;28;20076;-65
2021/07/16 05:58:22;;;;;;;18.85;8.68;;;16.80;99.90;;;;;;5045897;28;20094;-65
2021/07/16 06:00:51;;;;;;;18.35;9.35;;;16.50;99.90;;;;;;5048878;28;20761;-65
2021/07/16 06:03:19;;;;;;;14.90;8.00;;;16.70;99.90;;;;;;5049709;28;20048;-65
2021/07/16 06:05:46;;;;;;;17.25;8.73;;;16.80;99.90;;;;;;5050578;28;20464;-66
2021/07/16 06:08:13;;;;;;;17.05;10.25;;;16.90;99.90;;;;;;5046227;28;20045;-65
2021/07/16 06:10:40;;;;;;;19.05;9.25;;;17.00;99.90;;;;;;5046077;28;20102;-65
2021/07/16 06:13:07;;;;;;;16.98;10.05;;;17.10;99.90;;;;;;5045463;28;20121;-65
2021/07/16 06:15:34;;;;;;;18.52;9.05;;;17.10;99.90;;;;;;5044337;28;20059;-65
2021/07/16 06:18:03;;;;;;;13.93;8.52;;;17.10;99.90;;;;;;5044988;28;20535;-65
2021/07/16 06:20:30;;;;;;;24.02;9.05;;;17.20;99.90;;;;;;5045450;28;20048;-65
2021/07/16 06:22:57;;;;;;;16.38;8.55;;;17.30;99.90;;;;;;5045855;28;20546;-66
2021/07/16 06:25:24;;;;;;;17.70;8.98;;;17.50;99.90;;;;;;5043586;28;20045;-65
2021/07/16 06:27:51;;;;;;;17.55;8.75;;;17.70;99.90;;;;;;5044374;28;21498;-65
2021/07/16 06:30:19;;;;;;;15.05;9.10;;;17.80;99.90;;;;;;5044689;28;20114;-65
2021/07/16 06:32:46;;;;;;;13.65;8.63;;;17.70;99.90;;;;;;5045064;28;20048;-65
2021/07/16 06:35:15;;;;;;;17.67;9.45;;;17.70;99.90;;;;;;5044393;28;20044;-65
2021/07/16 06:37:42;;;;;;;126.05;20.67;;;17.80;99.90;;;;;;5043398;28;20167;-65
2021/07/16 06:40:10;;;;;;;18.83;8.10;;;17.80;99.90;;;;;;5045437;28;20521;-65
2021/07/16 06:42:37;;;;;;;11.52;6.57;;;17.90;99.90;;;;;;5039334;28;20534;-65
2021/07/16 06:45:06;;;;;;;10.63;7.05;;;17.80;99.90;;;;;;5045545;28;20587;-65
2021/07/16 06:47:33;;;;;;;10.45;6.57;;;18.10;99.90;;;;;;5050408;28;20118;-65
2021/07/16 06:50:00;;;;;;;13.20;7.38;;;17.90;99.90;;;;;;5050459;28;20063;-65
2021/07/16 06:52:29;;;;;;;13.57;7.32;;;17.90;99.90;;;;;;5052364;28;20045;-65
2021/07/16 06:54:56;;;;;;;10.23;6.40;;;18.10;99.90;;;;;;5051017;28;20527;-65
2021/07/16 06:57:23;;;;;;;10.00;6.25;;;18.20;99.90;;;;;;5050374;28;20080;-65
2021/07/16 06:59:50;;;;;;;8.88;6.03;;;18.60;99.90;;;;;;5051078;28;20059;-65
2021/07/16 07:02:17;;;;;;;11.65;6.38;;;18.80;99.90;;;;;;5051602;28;20048;-65
2021/07/16 07:04:44;;;;;;;10.52;6.80;;;18.80;99.90;;;;;;5050886;28;20053;-65
2021/07/16 07:07:11;;;;;;;10.20;6.30;;;18.70;99.90;;;;;;5050207;28;20098;-66
2021/07/16 07:09:39;;;;;;;8.55;5.47;;;18.90;99.90;;;;;;5051143;28;20636;-64
2021/07/16 07:12:07;;;;;;;9.07;5.82;;;19.20;99.90;;;;;;5050634;28;20141;-64
2021/07/16 07:14:34;;;;;;;10.50;6.40;;;19.20;99.90;;;;;;5051453;28;20056;-65
2021/07/16 07:17:01;;;;;;;10.13;6.18;;;19.00;99.90;;;;;;5050602;28;20086;-66
2021/07/16 07:19:28;;;;;;;10.43;6.38;;;19.10;99.90;;;;;;5049698;28;20087;-66
2021/07/16 07:21:55;;;;;;;9.18;6.40;;;19.50;99.90;;;;;;5051313;28;20160;-66
2021/07/16 07:24:22;;;;;;;9.20;6.18;;;19.50;99.90;;;;;;5050813;28;20048;-65
2021/07/16 07:26:53;;;;;;;9.88;6.30;;;19.50;99.90;;;;;;5051492;28;20506;-65
2021/07/16 07:29:21;;;;;;;14.23;7.45;;;19.20;99.90;;;;;;5050492;28;20063;-65
2021/07/16 07:31:48;;;;;;;12.85;7.22;;;19.00;99.90;;;;;;5050973;28;20084;-65
2021/07/16 07:34:14;;;;;;;9.30;6.68;;;18.90;99.90;;;;;;5051444;28;20084;-66
2021/07/16 07:36:41;;;;;;;10.10;6.85;;;18.90;99.90;;;;;;5052457;28;20084;-66
2021/07/16 07:39:08;;;;;;;10.02;6.55;;;18.80;99.90;;;;;;5052503;28;20048;-65
2021/07/16 07:41:35;;;;;;;11.35;6.70;;;18.90;99.90;;;;;;5052089;28;20052;-65
2021/07/16 07:44:04;;;;;;;9.05;6.60;;;19.20;99.90;;;;;;5050550;28;20052;-65
2021/07/16 07:46:31;;;;;;;11.98;7.00;;;19.40;99.90;;;;;;5050074;28;20080;-64
2021/07/16 07:48:58;;;;;;;11.90;7.13;;;19.40;99.90;;;;;;5047483;28;20107;-68
2021/07/16 07:51:25;;;;;;;13.95;7.50;;;19.60;99.90;;;;;;5047485;28;20056;-65
2021/07/16 07:53:53;;;;;;;14.77;7.10;;;19.70;99.90;;;;;;5047564;28;20054;-64
2021/07/16 07:56:20;;;;;;;14.93;6.60;;;19.80;99.90;;;;;;5046403;28;20052;-65
2021/07/16 07:58:47;;;;;;;9.20;5.85;;;19.90;99.90;;;;;;5042276;28;20148;-65
2021/07/16 08:01:16;;;;;;;15.73;6.35;;;20.10;99.90;;;;;;5035653;28;20062;-65
2021/07/16 08:03:43;;;;;;;12.93;6.22;;;20.40;99.90;;;;;;5043133;28;20088;-65
2021/07/16 08:06:10;;;;;;;11.68;6.75;;;20.60;99.90;;;;;;5044853;28;20414;-65
2021/07/16 08:08:37;;;;;;;11.32;6.35;;;20.70;99.90;;;;;;5045115;28;20088;-66
2021/07/16 08:11:04;;;;;;;12.93;6.65;;;20.70;99.90;;;;;;5042133;28;20443;-64
2021/07/16 08:13:31;;;;;;;8.60;5.85;;;20.80;99.90;;;;;;5042236;28;20649;-67
2021/07/16 08:15:58;;;;;;;8.80;5.70;;;21.00;99.90;;;;;;5043467;28;20459;-64
2021/07/16 08:18:26;;;;;;;8.10;4.88;;;21.00;99.90;;;;;;5034886;28;20093;-66
2021/07/16 08:20:54;;;;;;;8.48;4.93;;;21.20;99.90;;;;;;5035167;28;20412;-66
2021/07/16 08:23:21;;;;;;;10.07;5.10;;;21.10;99.90;;;;;;5040708;28;20157;-66
2021/07/16 08:25:48;;;;;;;11.20;5.75;;;21.30;99.90;;;;;;5043648;28;20106;-66
2021/07/16 08:28:15;;;;;;;8.55;4.80;;;21.30;99.90;;;;;;5043210;28;20137;-65
2021/07/16 08:30:42;;;;;;;7.60;5.32;;;21.20;99.90;;;;;;5044745;28;20489;-65
2021/07/16 08:33:09;;;;;;;6.88;4.35;;;21.50;99.90;;;;;;5043820;28;20076;-65
2021/07/16 08:35:37;;;;;;;11.75;4.68;;;21.70;99.90;;;;;;5044281;28;20084;-65
2021/07/16 08:38:05;;;;;;;10.85;4.40;;;21.90;99.90;;;;;;5045225;28;20076;-64
2021/07/16 08:40:33;;;;;;;7.78;4.97;;;22.20;99.90;;;;;;5048931;28;20408;-65
2021/07/16 08:43:00;;;;;;;7.20;4.75;;;22.50;99.90;;;;;;5047539;28;20080;-64
2021/07/16 08:45:27;;;;;;;8.82;4.75;;;22.70;99.90;;;;;;5048235;28;20106;-64
2021/07/16 08:47:54;;;;;;;8.43;4.80;;;22.80;99.90;;;;;;5046965;28;20052;-65
2021/07/16 08:50:23;;;;;;;6.60;3.80;;;23.20;99.90;;;;;;5048171;28;20064;-65
2021/07/16 08:52:56;;;;;;;5.93;3.42;;;23.30;99.90;;;;;;5049519;28;20056;-65
2021/07/16 08:55:23;;;;;;;7.63;4.20;;;23.60;99.90;;;;;;5047931;28;20386;-65
2021/07/16 08:57:50;;;;;;;10.77;3.40;;;24.10;99.90;;;;;;5042760;28;20063;-65
2021/07/16 09:00:21;;;;;;;5.30;3.20;;;24.70;99.90;;;;;;5046187;28;20056;-65
2021/07/16 09:02:54;;;;;;;5.43;3.25;;;25.10;99.90;;;;;;5044218;28;20840;-65
2021/07/16 09:05:35;;;;;;;6.68;3.22;;;25.30;99.90;;;;;;5048120;28;20060;-65
2021/07/16 09:08:05;;;;;;;5.45;3.58;;;26.00;99.90;;;;;;5047302;28;20056;-65
2021/07/16 09:10:32;;;;;;;7.70;3.38;;;26.40;99.90;;;;;;5046484;28;20501;-66
2021/07/16 09:13:01;;;;;;;6.18;3.28;;;26.90;99.90;;;;;;5048343;28;20163;-66
2021/07/16 09:15:29;;;;;;;5.35;3.35;;;27.80;99.90;;;;;;5046290;28;20052;-65
2021/07/16 09:18:21;;;;;;;6.63;3.13;;;27.80;99.90;;;;;;5046689;28;20076;-65
2021/07/16 09:20:49;;;;;;;6.35;3.08;;;29.00;99.90;;;;;;5046771;28;20181;-66
2021/07/16 09:23:19;;;;;;;7.80;3.17;;;29.60;99.90;;;;;;5046544;28;20052;-66
2021/07/16 09:26:02;;;;;;;5.18;2.70;;;30.00;99.90;;;;;;5045331;28;20060;-66
2021/07/16 09:28:29;;;;;;;3.92;2.72;;;30.70;99.90;;;;;;5045670;28;21063;-65
2021/07/16 09:31:12;;;;;;;4.65;2.63;;;30.70;99.90;;;;;;5045426;28;20088;-65
2021/07/16 09:33:44;;;;;;;2.85;2.03;;;31.40;99.90;;;;;;5046597;28;20166;-65
2021/07/16 09:36:12;;;;;;;6.45;2.20;;;31.70;99.90;;;;;;5044841;28;20040;-66
2021/07/16 09:38:41;;;;;;;5.90;1.80;;;31.80;99.90;;;;;;5046482;28;20056;-66
2021/07/16 09:41:09;;;;;;;3.38;1.45;;;32.40;99.90;;;;;;5047037;28;20224;-66
2021/07/16 09:43:36;;;;;;;6.03;1.88;;;32.90;99.90;;;;;;5044353;28;20056;-65
2021/07/16 09:46:05;;;;;;;6.45;1.95;;;33.00;99.90;;;;;;5041109;28;20059;-66
2021/07/16 09:48:34;;;;;;;2.42;1.60;;;33.20;99.90;;;;;;5038894;28;20582;-66
2021/07/16 09:51:15;;;;;;;4.15;1.60;;;33.40;99.90;;;;;;5041568;28;20053;-67
2021/07/16 09:53:45;;;;;;;2.20;1.33;;;32.80;99.90;;;;;;5041046;28;20130;-67
2021/07/16 09:56:17;;;;;;;2.22;1.40;;;33.10;99.90;;;;;;5041565;28;20045;-66
2021/07/16 09:58:45;;;;;;;5.63;1.38;;;33.50;99.90;;;;;;5042927;28;20133;-66
2021/07/16 10:01:12;;;;;;;5.75;1.65;;;33.70;99.30;;;;;;5039793;28;20135;-66
2021/07/16 10:03:40;;;;;;;1.67;1.23;;;33.20;98.50;;;;;;5047625;28;20504;-66
2021/07/16 10:06:12;;;;;;;2.55;0.88;;;33.70;98.30;;;;;;5044344;28;21082;-66
2021/07/16 10:08:41;;;;;;;3.83;1.33;;;34.20;96.50;;;;;;5045536;28;20890;-66
2021/07/16 10:11:11;;;;;;;2.70;1.30;;;34.50;95.90;;;;;;5046755;28;20106;-66
2021/07/16 10:13:40;;;;;;;3.13;1.50;;;34.60;95.50;;;;;;5046967;28;20240;-66
2021/07/16 10:16:07;;;;;;;3.22;1.58;;;34.70;95.10;;;;;;5044495;28;20163;-66
2021/07/16 10:18:34;;;;;;;2.63;1.50;;;34.90;94.80;;;;;;5044960;28;20686;-66
2021/07/16 10:21:01;;;;;;;1.70;1.30;;;35.30;93.50;;;;;;5046088;28;20050;-67
2021/07/16 10:23:29;;;;;;;5.15;1.50;;;34.60;92.40;;;;;;5045740;28;20048;-66
2021/07/16 10:25:56;;;;;;;1.45;1.00;;;33.90;94.80;;;;;;5040241;28;20499;-67
2021/07/16 10:28:40;;;;;;;3.63;1.33;;;34.40;91.30;;;;;;5036825;28;20191;-66
2021/07/16 10:31:41;;;;;;;3.97;1.20;;;33.80;90.00;;;;;;5046260;28;20106;-65
2021/07/16 10:34:36;;;;;;;2.92;1.40;;;34.00;92.40;;;;;;5049470;28;20131;-66
2021/07/16 10:37:06;;;;;;;2.67;1.50;;;34.40;92.20;;;;;;5049695;28;20080;-65
2021/07/16 10:39:42;;;;;;;4.18;1.80;;;34.30;91.60;;;;;;5049345;28;20084;-67
2021/07/16 10:42:39;;;;;;;4.72;2.22;;;35.00;93.10;;;;;;5049681;28;20048;-65
2021/07/16 10:45:09;;;;;;;5.72;1.77;;;34.50;92.00;;;;;;5047641;28;20139;-65
2021/07/16 10:47:39;;;;;;;3.20;1.70;;;34.80;91.90;;;;;;5048613;28;20358;-65
2021/07/16 10:50:08;;;;;;;1.50;1.13;;;34.20;90.70;;;;;;5049093;28;20072;-66
2021/07/16 10:52:49;;;;;;;2.30;1.40;;;34.70;89.50;;;;;;5044449;28;20161;-68
2021/07/16 10:55:18;;;;;;;5.47;1.60;;;35.00;89.70;;;;;;5044329;28;20114;-66
2021/07/16 10:57:46;;;;;;;2.85;1.27;;;35.10;88.40;;;;;;5047245;28;20051;-65
2021/07/16 11:00:48;;;;;;;4.95;1.40;;;35.30;86.80;;;;;;5045198;28;20147;-65
2021/07/16 11:03:15;;;;;;;2.53;1.45;;;35.10;83.50;;;;;;5047345;28;20421;-66
2021/07/16 11:05:54;;;;;;;4.20;1.40;;;35.30;86.10;;;;;;5045281;28;20049;-65
2021/07/16 11:08:49;;;;;;;1.70;1.40;;;35.60;84.10;;;;;;5044044;28;20135;-65
2021/07/16 11:11:17;;;;;;;3.10;1.20;;;35.30;83.00;;;;;;5046212;28;20054;-65
2021/07/16 11:13:45;;;;;;;2.90;1.20;;;34.80;83.10;;;;;;5047957;28;20354;-65
2021/07/16 11:16:43;;;;;;;2.00;1.20;;;34.60;80.20;;;;;;5049003;28;20850;-65
2021/07/16 11:19:19;;;;;;;1.77;1.20;;;35.20;77.70;;;;;;5047872;28;20139;-66
2021/07/16 11:22:07;;;;;;;3.42;1.30;;;35.10;77.70;;;;;;5048214;28;20040;-65
2021/07/16 11:24:35;;;;;;;3.05;1.35;;;35.40;83.80;;;;;;5049618;28;20060;-66
2021/07/16 11:27:09;;;;;;;3.53;1.52;;;35.90;80.10;;;;;;5047992;28;20829;-65
2021/07/16 11:29:38;;;;;;;3.13;1.30;;;35.60;76.90;;;;;;5047751;28;20741;-66
2021/07/16 11:32:13;;;;;;;3.17;1.63;;;35.20;75.90;;;;;;5048418;28;20505;-66
2021/07/16 11:34:54;;;;;;;2.30;1.35;;;35.00;78.40;;;;;;5046558;28;20138;-66
2021/07/16 11:37:26;;;;;;;3.97;1.40;;;34.00;77.30;;;;;;5045283;28;20118;-66
2021/07/16 11:39:55;;;;;;;1.77;1.17;;;33.70;79.80;;;;;;5046504;28;20493;-65
2021/07/16 11:42:22;;;;;;;1.15;1.02;;;33.60;78.40;;;;;;5044063;28;20121;-65
2021/07/16 11:44:49;;;;;;;3.28;1.30;;;33.50;81.10;;;;;;5043862;28;20505;-65
2021/07/16 11:47:19;;;;;;;2.08;1.30;;;34.20;81.20;;;;;;5045754;28;21543;-65
2021/07/16 11:49:48;;;;;;;3.35;1.25;;;34.70;79.20;;;;;;5045126;28;20729;-65
2021/07/16 11:52:17;;;;;;;1.67;1.08;;;35.20;79.90;;;;;;5044879;28;20079;-66
2021/07/16 11:54:44;;;;;;;1.90;1.40;;;35.30;77.50;;;;;;5045037;28;20044;-66
2021/07/16 11:57:14;;;;;;;3.45;1.48;;;35.80;78.00;;;;;;5041896;28;20056;-65
2021/07/16 11:59:47;;;;;;;4.75;1.98;;;36.00;76.60;;;;;;5044234;28;20261;-66
2021/07/16 12:02:17;;;;;;;4.80;1.80;;;36.10;76.40;;;;;;5044008;28;20056;-66
2021/07/16 12:04:46;;;;;;;1.77;1.45;;;35.90;73.20;;;;;;5046098;28;20168;-66
2021/07/16 12:07:14;;;;;;;2.17;1.35;;;36.00;78.50;;;;;;5043194;28;20084;-66
2021/07/16 12:09:44;;;;;;;2.80;1.55;;;36.70;76.20;;;;;;5042846;28;20131;-66
2021/07/16 12:12:13;;;;;;;2.15;1.40;;;36.50;73.30;;;;;;5045659;28;20409;-67
2021/07/16 12:14:51;;;;;;;2.75;1.30;;;36.90;73.10;;;;;;5043557;28;20059;-66
2021/07/16 12:17:24;;;;;;;2.47;1.55;;;37.20;75.20;;;;;;5036500;28;20140;-66
2021/07/16 12:19:51;;;;;;;3.15;1.30;;;36.70;74.20;;;;;;5041738;28;20318;-66
2021/07/16 12:22:21;;;;;;;2.28;1.55;;;37.20;72.90;;;;;;5040283;28;20271;-66
2021/07/16 12:24:49;;;;;;;1.63;1.30;;;36.40;74.70;;;;;;5045636;28;20048;-66
2021/07/16 12:27:17;;;;;;;5.15;1.85;;;36.70;71.90;;;;;;5044684;28;20496;-66
2021/07/16 12:29:45;;;;;;;2.47;1.60;;;36.90;72.50;;;;;;5045903;28;20052;-66
2021/07/16 12:32:14;;;;;;;2.72;1.60;;;36.40;74.50;;;;;;5046386;28;20476;-66
2021/07/16 12:34:45;;;;;;;5.45;1.48;;;37.00;72.80;;;;;;5044981;28;20589;-66
2021/07/16 12:37:15;;;;;;;2.75;1.50;;;36.90;71.50;;;;;;5045721;28;20169;-65
2021/07/16 12:39:44;;;;;;;3.22;1.50;;;36.40;71.20;;;;;;5045535;28;20140;-66
2021/07/16 12:42:13;;;;;;;4.50;1.65;;;36.60;71.60;;;;;;5043503;28;20074;-65
2021/07/16 12:44:40;;;;;;;4.20;1.58;;;36.80;70.70;;;;;;5041584;28;20143;-66
2021/07/16 12:47:07;;;;;;;2.35;1.27;;;35.70;71.80;;;;;;5040404;28;20063;-65
2021/07/16 12:49:35;;;;;;;3.72;1.60;;;36.40;71.60;;;;;;5043649;28;20132;-66